sensor_id;sensor_type;location;lat;lon;timestamp;pressure;altitude;pressure_sealevel;temperature;humidity
31911;BME280;18457;52.432;16.914;2024-01-25T00:02:20;99954.59;;;7.50;95.19
31911;BME280;18457;52.432;16.914;2024-01-25T00:04:53;99947.60;;;7.49;94.80
31911;BME280;18457;52.432;16.914;2024-01-25T00:07:26;99939.14;;;7.49;94.68
31911;BME280;18457;52.432;16.914;2024-01-25T00:09:58;99948.25;;;7.43;95.12
31911;BME280;18457;52.432;16.914;2024-01-25T00:12:32;99939.54;;;7.38;95.54
31911;BME280;18457;52.432;16.914;2024-01-25T00:15:05;99934.43;;;7.32;96.75
31911;BME280;18457;52.432;16.914;2024-01-25T00:17:38;99938.43;;;7.31;97.16
31911;BME280;18457;52.432;16.914;2024-01-25T00:20:12;99950.85;;;7.29;97.61
31911;BME280;18457;52.432;16.914;2024-01-25T00:22:44;99960.80;;;7.26;97.68
31911;BME280;18457;52.432;16.914;2024-01-25T00:25:17;99965.11;;;7.26;97.34
31911;BME280;18457;52.432;16.914;2024-01-25T00:27:49;99978.90;;;7.27;97.60
31911;BME280;18457;52.432;16.914;2024-01-25T00:30:22;99974.80;;;7.26;99.62
31911;BME280;18457;52.432;16.914;2024-01-25T00:32:55;99975.29;;;7.19;100.00
31911;BME280;18457;52.432;16.914;2024-01-25T00:35:32;99973.57;;;7.15;100.00
31911;BME280;18457;52.432;16.914;2024-01-25T00:38:06;99974.47;;;7.14;100.00
31911;BME280;18457;52.432;16.914;2024-01-25T00:40:39;99980.17;;;7.07;100.00
31911;BME280;18457;52.432;16.914;2024-01-25T00:43:13;99975.47;;;7.08;100.00
31911;BME280;18457;52.432;16.914;2024-01-25T00:45:46;99983.97;;;7.05;100.00
31911;BME280;18457;52.432;16.914;2024-01-25T00:48:21;99986.10;;;6.95;100.00
31911;BME280;18457;52.432;16.914;2024-01-25T00:50:54;100002.08;;;6.95;100.00
31911;BME280;18457;52.432;16.914;2024-01-25T00:53:28;99999.38;;;6.85;100.00
31911;BME280;18457;52.432;16.914;2024-01-25T00:56:01;99997.30;;;6.79;100.00
31911;BME280;18457;52.432;16.914;2024-01-25T00:58:38;100009.59;;;6.74;100.00
31911;BME280;18457;52.432;16.914;2024-01-25T01:01:11;99984.57;;;6.67;100.00
31911;BME280;18457;52.432;16.914;2024-01-25T01:03:46;99974.90;;;6.66;100.00
31911;BME280;18457;52.432;16.914;2024-01-25T01:06:24;99976.73;;;6.64;100.00
31911;BME280;18457;52.432;16.914;2024-01-25T01:08:57;99989.70;;;6.60;100.00
31911;BME280;18457;52.432;16.914;2024-01-25T01:11:30;100006.55;;;6.62;100.00
31911;BME280;18457;52.432;16.914;2024-01-25T01:14:02;100014.79;;;6.63;100.00
31911;BME280;18457;52.432;16.914;2024-01-25T01:16:35;100026.44;;;6.63;100.00
31911;BME280;18457;52.432;16.914;2024-01-25T01:19:07;100031.84;;;6.62;100.00
31911;BME280;18457;52.432;16.914;2024-01-25T01:21:40;100021.48;;;6.60;100.00
31911;BME280;18457;52.432;16.914;2024-01-25T01:24:15;99998.24;;;6.53;100.00
31911;BME280;18457;52.432;16.914;2024-01-25T01:26:47;100008.59;;;6.45;100.00
31911;BME280;18457;52.432;16.914;2024-01-25T01:29:20;100020.45;;;6.43;100.00
31911;BME280;18457;52.432;16.914;2024-01-25T01:31:52;100007.86;;;6.44;100.00
31911;BME280;18457;52.432;16.914;2024-01-25T01:34:24;100004.64;;;6.44;100.00
31911;BME280;18457;52.432;16.914;2024-01-25T01:36:56;99999.83;;;6.43;100.00
31911;BME280;18457;52.432;16.914;2024-01-25T01:39:28;100007.14;;;6.45;100.00
31911;BME280;18457;52.432;16.914;2024-01-25T01:42:01;100013.34;;;6.51;100.00
31911;BME280;18457;52.432;16.914;2024-01-25T01:44:33;100004.38;;;6.51;100.00
31911;BME280;18457;52.432;16.914;2024-01-25T01:47:05;100011.55;;;6.50;100.00
31911;BME280;18457;52.432;16.914;2024-01-25T01:49:37;100008.67;;;6.51;100.00
31911;BME280;18457;52.432;16.914;2024-01-25T01:52:10;100012.08;;;6.51;100.00
31911;BME280;18457;52.432;16.914;2024-01-25T01:54:43;100019.77;;;6.54;100.00
31911;BME280;18457;52.432;16.914;2024-01-25T01:57:15;100035.21;;;6.52;100.00
31911;BME280;18457;52.432;16.914;2024-01-25T01:59:47;100022.44;;;6.55;100.00
31911;BME280;18457;52.432;16.914;2024-01-25T02:02:20;100018.84;;;6.55;100.00
31911;BME280;18457;52.432;16.914;2024-01-25T02:04:54;100019.20;;;6.55;100.00
31911;BME280;18457;52.432;16.914;2024-01-25T02:07:27;100034.91;;;6.61;100.00
31911;BME280;18457;52.432;16.914;2024-01-25T02:09:59;100013.13;;;6.65;100.00
31911;BME280;18457;52.432;16.914;2024-01-25T02:12:32;100020.80;;;6.69;100.00
31911;BME280;18457;52.432;16.914;2024-01-25T02:15:05;100011.23;;;6.71;100.00
31911;BME280;18457;52.432;16.914;2024-01-25T02:17:38;100011.45;;;6.69;100.00
31911;BME280;18457;52.432;16.914;2024-01-25T02:20:11;100012.21;;;6.79;100.00
31911;BME280;18457;52.432;16.914;2024-01-25T02:22:44;100012.72;;;6.80;100.00
31911;BME280;18457;52.432;16.914;2024-01-25T02:25:16;100018.61;;;6.83;100.00
31911;BME280;18457;52.432;16.914;2024-01-25T02:27:49;100005.48;;;6.85;100.00
31911;BME280;18457;52.432;16.914;2024-01-25T02:30:22;100001.87;;;6.86;100.00
31911;BME280;18457;52.432;16.914;2024-01-25T02:32:54;100009.38;;;6.88;100.00
31911;BME280;18457;52.432;16.914;2024-01-25T02:35:27;100012.41;;;6.89;100.00
31911;BME280;18457;52.432;16.914;2024-01-25T02:37:59;100010.59;;;6.91;100.00
31911;BME280;18457;52.432;16.914;2024-01-25T02:40:31;100003.20;;;6.93;100.00
31911;BME280;18457;52.432;16.914;2024-01-25T02:43:03;99997.90;;;6.98;100.00
31911;BME280;18457;52.432;16.914;2024-01-25T02:45:35;100000.48;;;7.05;100.00
31911;BME280;18457;52.432;16.914;2024-01-25T02:48:08;99996.35;;;7.05;100.00
31911;BME280;18457;52.432;16.914;2024-01-25T02:50:40;99987.88;;;7.07;99.94
31911;BME280;18457;52.432;16.914;2024-01-25T02:53:12;99987.85;;;7.09;98.78
31911;BME280;18457;52.432;16.914;2024-01-25T02:55:44;99986.36;;;7.13;98.19
31911;BME280;18457;52.432;16.914;2024-01-25T02:58:18;99987.55;;;7.16;97.40
31911;BME280;18457;52.432;16.914;2024-01-25T03:00:50;99985.39;;;7.17;96.75
31911;BME280;18457;52.432;16.914;2024-01-25T03:03:23;99999.28;;;7.23;94.90
31911;BME280;18457;52.432;16.914;2024-01-25T03:05:58;99997.77;;;7.27;95.20
31911;BME280;18457;52.432;16.914;2024-01-25T03:08:30;100000.03;;;7.31;93.87
31911;BME280;18457;52.432;16.914;2024-01-25T03:11:02;100000.16;;;7.34;93.57
31911;BME280;18457;52.432;16.914;2024-01-25T03:13:35;100005.90;;;7.34;92.44
31911;BME280;18457;52.432;16.914;2024-01-25T03:16:07;100005.26;;;7.40;92.13
31911;BME280;18457;52.432;16.914;2024-01-25T03:18:39;100000.38;;;7.42;91.55
31911;BME280;18457;52.432;16.914;2024-01-25T03:21:11;100013.35;;;7.40;90.97
31911;BME280;18457;52.432;16.914;2024-01-25T03:23:43;100017.11;;;7.41;91.21
31911;BME280;18457;52.432;16.914;2024-01-25T03:26:16;100018.56;;;7.41;91.78
31911;BME280;18457;52.432;16.914;2024-01-25T03:28:49;100017.95;;;7.34;93.49
31911;BME280;18457;52.432;16.914;2024-01-25T03:31:21;100022.48;;;7.32;95.20
31911;BME280;18457;52.432;16.914;2024-01-25T03:33:54;100024.22;;;7.25;96.94
31911;BME280;18457;52.432;16.914;2024-01-25T03:36:26;100029.16;;;7.19;97.83
31911;BME280;18457;52.432;16.914;2024-01-25T03:38:59;100026.36;;;7.15;99.19
31911;BME280;18457;52.432;16.914;2024-01-25T03:41:31;100022.65;;;7.11;100.00
31911;BME280;18457;52.432;16.914;2024-01-25T03:44:04;100027.63;;;7.03;100.00
31911;BME280;18457;52.432;16.914;2024-01-25T03:46:36;100029.46;;;7.01;99.84
31911;BME280;18457;52.432;16.914;2024-01-25T03:49:08;100019.55;;;7.04;99.94
31911;BME280;18457;52.432;16.914;2024-01-25T03:51:41;100024.73;;;7.05;99.54
31911;BME280;18457;52.432;16.914;2024-01-25T03:54:12;100022.58;;;7.05;99.07
31911;BME280;18457;52.432;16.914;2024-01-25T03:56:45;100017.58;;;7.03;98.94
31911;BME280;18457;52.432;16.914;2024-01-25T03:59:17;100018.77;;;7.07;99.44
31911;BME280;18457;52.432;16.914;2024-01-25T04:01:50;100022.42;;;7.04;99.92
31911;BME280;18457;52.432;16.914;2024-01-25T04:04:22;100009.96;;;6.97;100.00
31911;BME280;18457;52.432;16.914;2024-01-25T04:06:55;100009.02;;;6.88;100.00
31911;BME280;18457;52.432;16.914;2024-01-25T04:09:27;100016.92;;;6.88;100.00
31911;BME280;18457;52.432;16.914;2024-01-25T04:12:01;100011.85;;;6.90;100.00
31911;BME280;18457;52.432;16.914;2024-01-25T04:14:33;100015.45;;;6.90;100.00
31911;BME280;18457;52.432;16.914;2024-01-25T04:17:06;100020.04;;;6.84;100.00
31911;BME280;18457;52.432;16.914;2024-01-25T04:19:38;100020.21;;;6.84;100.00
31911;BME280;18457;52.432;16.914;2024-01-25T04:22:09;100020.73;;;6.84;100.00
31911;BME280;18457;52.432;16.914;2024-01-25T04:24:41;100030.70;;;6.80;100.00
31911;BME280;18457;52.432;16.914;2024-01-25T04:27:15;100025.48;;;6.80;100.00
31911;BME280;18457;52.432;16.914;2024-01-25T04:29:47;100029.67;;;6.87;100.00
31911;BME280;18457;52.432;16.914;2024-01-25T04:32:21;100036.17;;;6.85;100.00
31911;BME280;18457;52.432;16.914;2024-01-25T04:34:53;100032.33;;;6.89;100.00
31911;BME280;18457;52.432;16.914;2024-01-25T04:37:26;100035.46;;;6.85;100.00
31911;BME280;18457;52.432;16.914;2024-01-25T04:39:59;100038.33;;;6.85;100.00
31911;BME280;18457;52.432;16.914;2024-01-25T04:42:30;100035.67;;;6.83;100.00
31911;BME280;18457;52.432;16.914;2024-01-25T04:45:02;100033.55;;;6.79;100.00
31911;BME280;18457;52.432;16.914;2024-01-25T04:47:36;100044.73;;;6.77;100.00
31911;BME280;18457;52.432;16.914;2024-01-25T04:50:10;100044.55;;;6.76;100.00
31911;BME280;18457;52.432;16.914;2024-01-25T04:52:42;100047.80;;;6.75;100.00
31911;BME280;18457;52.432;16.914;2024-01-25T04:55:14;100046.73;;;6.76;100.00
31911;BME280;18457;52.432;16.914;2024-01-25T04:57:46;100047.46;;;6.73;100.00
31911;BME280;18457;52.432;16.914;2024-01-25T05:00:22;100039.13;;;6.67;100.00
31911;BME280;18457;52.432;16.914;2024-01-25T05:02:53;100046.09;;;6.69;100.00
31911;BME280;18457;52.432;16.914;2024-01-25T05:05:25;100047.00;;;6.69;100.00
31911;BME280;18457;52.432;16.914;2024-01-25T05:07:58;100047.05;;;6.65;100.00
31911;BME280;18457;52.432;16.914;2024-01-25T05:10:31;100048.48;;;6.66;100.00
31911;BME280;18457;52.432;16.914;2024-01-25T05:13:03;100048.44;;;6.68;100.00
31911;BME280;18457;52.432;16.914;2024-01-25T05:15:35;100049.11;;;6.71;100.00
31911;BME280;18457;52.432;16.914;2024-01-25T05:18:08;100048.98;;;6.69;100.00
31911;BME280;18457;52.432;16.914;2024-01-25T05:20:41;100048.51;;;6.64;100.00
31911;BME280;18457;52.432;16.914;2024-01-25T05:23:14;100046.03;;;6.61;100.00
31911;BME280;18457;52.432;16.914;2024-01-25T05:25:46;100050.48;;;6.64;100.00
31911;BME280;18457;52.432;16.914;2024-01-25T05:28:19;100056.55;;;6.66;100.00
31911;BME280;18457;52.432;16.914;2024-01-25T05:30:51;100054.63;;;6.64;100.00
31911;BME280;18457;52.432;16.914;2024-01-25T05:33:23;100071.52;;;6.62;100.00
31911;BME280;18457;52.432;16.914;2024-01-25T05:35:56;100060.02;;;6.63;100.00
31911;BME280;18457;52.432;16.914;2024-01-25T05:38:27;100063.77;;;6.64;100.00
31911;BME280;18457;52.432;16.914;2024-01-25T05:40:59;100067.56;;;6.62;100.00
31911;BME280;18457;52.432;16.914;2024-01-25T05:43:31;100071.55;;;6.59;100.00
31911;BME280;18457;52.432;16.914;2024-01-25T05:46:04;100066.73;;;6.58;100.00
31911;BME280;18457;52.432;16.914;2024-01-25T05:48:36;100074.05;;;6.59;100.00
31911;BME280;18457;52.432;16.914;2024-01-25T05:51:11;100084.85;;;6.58;100.00
31911;BME280;18457;52.432;16.914;2024-01-25T05:53:45;100080.36;;;6.57;100.00
31911;BME280;18457;52.432;16.914;2024-01-25T05:56:17;100085.04;;;6.57;100.00
31911;BME280;18457;52.432;16.914;2024-01-25T05:58:49;100076.97;;;6.57;100.00
31911;BME280;18457;52.432;16.914;2024-01-25T06:01:22;100088.78;;;6.59;100.00
31911;BME280;18457;52.432;16.914;2024-01-25T06:03:55;100085.36;;;6.60;100.00
31911;BME280;18457;52.432;16.914;2024-01-25T06:06:27;100093.61;;;6.60;100.00
31911;BME280;18457;52.432;16.914;2024-01-25T06:08:59;100093.84;;;6.57;100.00
31911;BME280;18457;52.432;16.914;2024-01-25T06:11:43;100099.02;;;6.59;100.00
31911;BME280;18457;52.432;16.914;2024-01-25T06:14:19;100109.03;;;6.62;100.00
31911;BME280;18457;52.432;16.914;2024-01-25T06:16:51;100124.83;;;6.60;100.00
31911;BME280;18457;52.432;16.914;2024-01-25T06:19:23;100123.40;;;6.60;100.00
31911;BME280;18457;52.432;16.914;2024-01-25T06:21:56;100119.99;;;6.59;100.00
31911;BME280;18457;52.432;16.914;2024-01-25T06:24:28;100134.70;;;6.60;100.00
31911;BME280;18457;52.432;16.914;2024-01-25T06:27:01;100127.52;;;6.61;100.00
31911;BME280;18457;52.432;16.914;2024-01-25T06:29:32;100132.92;;;6.59;100.00
31911;BME280;18457;52.432;16.914;2024-01-25T06:32:05;100141.70;;;6.60;100.00
31911;BME280;18457;52.432;16.914;2024-01-25T06:34:43;100146.39;;;6.58;100.00
31911;BME280;18457;52.432;16.914;2024-01-25T06:37:16;100139.96;;;6.57;100.00
31911;BME280;18457;52.432;16.914;2024-01-25T06:39:49;100141.21;;;6.57;100.00
31911;BME280;18457;52.432;16.914;2024-01-25T06:42:22;100132.40;;;6.57;100.00
31911;BME280;18457;52.432;16.914;2024-01-25T06:44:53;100133.64;;;6.59;100.00
31911;BME280;18457;52.432;16.914;2024-01-25T06:47:26;100152.16;;;6.56;100.00
31911;BME280;18457;52.432;16.914;2024-01-25T06:49:58;100152.69;;;6.57;100.00
31911;BME280;18457;52.432;16.914;2024-01-25T06:52:30;100164.05;;;6.52;100.00
31911;BME280;18457;52.432;16.914;2024-01-25T06:55:02;100163.31;;;6.54;100.00
31911;BME280;18457;52.432;16.914;2024-01-25T06:57:34;100160.80;;;6.55;100.00
31911;BME280;18457;52.432;16.914;2024-01-25T07:00:08;100163.64;;;6.56;100.00
31911;BME280;18457;52.432;16.914;2024-01-25T07:02:43;100163.65;;;6.55;100.00
31911;BME280;18457;52.432;16.914;2024-01-25T07:05:14;100170.65;;;6.55;100.00
31911;BME280;18457;52.432;16.914;2024-01-25T07:07:48;100170.48;;;6.54;100.00
31911;BME280;18457;52.432;16.914;2024-01-25T07:10:20;100187.77;;;6.50;100.00
31911;BME280;18457;52.432;16.914;2024-01-25T07:12:53;100187.02;;;6.54;100.00
31911;BME280;18457;52.432;16.914;2024-01-25T07:15:25;100199.71;;;6.56;100.00
31911;BME280;18457;52.432;16.914;2024-01-25T07:17:57;100203.66;;;6.56;100.00
31911;BME280;18457;52.432;16.914;2024-01-25T07:20:30;100200.80;;;6.55;100.00
31911;BME280;18457;52.432;16.914;2024-01-25T07:23:02;100203.31;;;6.55;100.00
31911;BME280;18457;52.432;16.914;2024-01-25T07:25:35;100203.83;;;6.58;100.00
31911;BME280;18457;52.432;16.914;2024-01-25T07:28:07;100211.57;;;6.56;100.00
31911;BME280;18457;52.432;16.914;2024-01-25T07:30:39;100217.62;;;6.60;100.00
31911;BME280;18457;52.432;16.914;2024-01-25T07:33:11;100217.60;;;6.61;100.00
31911;BME280;18457;52.432;16.914;2024-01-25T07:35:43;100221.66;;;6.66;100.00
31911;BME280;18457;52.432;16.914;2024-01-25T07:38:17;100229.20;;;6.68;100.00
31911;BME280;18457;52.432;16.914;2024-01-25T07:40:49;100233.66;;;6.70;100.00
31911;BME280;18457;52.432;16.914;2024-01-25T07:43:21;100240.08;;;6.73;100.00
31911;BME280;18457;52.432;16.914;2024-01-25T07:45:53;100239.02;;;6.72;100.00
31911;BME280;18457;52.432;16.914;2024-01-25T07:48:26;100247.27;;;6.71;100.00
31911;BME280;18457;52.432;16.914;2024-01-25T07:50:57;100244.18;;;6.76;100.00
31911;BME280;18457;52.432;16.914;2024-01-25T07:53:30;100248.07;;;6.80;100.00
31911;BME280;18457;52.432;16.914;2024-01-25T07:56:02;100251.45;;;6.82;100.00
31911;BME280;18457;52.432;16.914;2024-01-25T07:58:34;100244.75;;;6.88;100.00
31911;BME280;18457;52.432;16.914;2024-01-25T08:01:05;100242.60;;;6.88;100.00
31911;BME280;18457;52.432;16.914;2024-01-25T08:03:38;100251.04;;;6.89;99.99
31911;BME280;18457;52.432;16.914;2024-01-25T08:06:10;100243.77;;;6.95;100.00
31911;BME280;18457;52.432;16.914;2024-01-25T08:08:42;100252.72;;;6.98;99.40
31911;BME280;18457;52.432;16.914;2024-01-25T08:11:14;100248.59;;;6.98;98.48
31911;BME280;18457;52.432;16.914;2024-01-25T08:13:49;100253.36;;;7.04;98.13
31911;BME280;18457;52.432;16.914;2024-01-25T08:16:21;100251.18;;;7.05;97.90
31911;BME280;18457;52.432;16.914;2024-01-25T08:18:53;100260.50;;;7.08;97.49
31911;BME280;18457;52.432;16.914;2024-01-25T08:21:25;100263.88;;;7.11;97.10
31911;BME280;18457;52.432;16.914;2024-01-25T08:23:58;100278.56;;;7.15;96.61
31911;BME280;18457;52.432;16.914;2024-01-25T08:26:30;100277.98;;;7.18;95.86
31911;BME280;18457;52.432;16.914;2024-01-25T08:29:02;100281.22;;;7.18;95.41
31911;BME280;18457;52.432;16.914;2024-01-25T08:31:34;100275.98;;;7.20;95.06
31911;BME280;18457;52.432;16.914;2024-01-25T08:34:06;100283.08;;;7.27;95.18
31911;BME280;18457;52.432;16.914;2024-01-25T08:36:39;100286.70;;;7.24;94.61
31911;BME280;18457;52.432;16.914;2024-01-25T08:39:11;100294.13;;;7.20;94.48
31911;BME280;18457;52.432;16.914;2024-01-25T08:41:44;100289.04;;;7.23;94.60
31911;BME280;18457;52.432;16.914;2024-01-25T08:44:19;100303.40;;;7.24;94.21
31911;BME280;18457;52.432;16.914;2024-01-25T08:46:51;100299.33;;;7.21;94.55
31911;BME280;18457;52.432;16.914;2024-01-25T08:49:23;100306.84;;;7.22;94.55
31911;BME280;18457;52.432;16.914;2024-01-25T08:51:56;100306.69;;;7.20;94.49
31911;BME280;18457;52.432;16.914;2024-01-25T08:54:28;100312.27;;;7.20;94.72
31911;BME280;18457;52.432;16.914;2024-01-25T08:56:59;100313.11;;;7.23;94.80
31911;BME280;18457;52.432;16.914;2024-01-25T08:59:31;100323.76;;;7.20;95.10
31911;BME280;18457;52.432;16.914;2024-01-25T09:02:04;100336.69;;;7.21;94.89
31911;BME280;18457;52.432;16.914;2024-01-25T09:04:37;100335.08;;;7.21;95.08
31911;BME280;18457;52.432;16.914;2024-01-25T09:07:12;100338.81;;;7.24;94.98
31911;BME280;18457;52.432;16.914;2024-01-25T09:09:44;100343.85;;;7.23;94.49
31911;BME280;18457;52.432;16.914;2024-01-25T09:12:16;100351.79;;;7.20;94.54
31911;BME280;18457;52.432;16.914;2024-01-25T09:14:48;100354.95;;;7.25;94.58
31911;BME280;18457;52.432;16.914;2024-01-25T09:17:21;100360.39;;;7.21;94.26
31911;BME280;18457;52.432;16.914;2024-01-25T09:19:53;100357.29;;;7.25;94.46
31911;BME280;18457;52.432;16.914;2024-01-25T09:22:24;100362.78;;;7.32;94.22
31911;BME280;18457;52.432;16.914;2024-01-25T09:24:56;100366.91;;;7.33;93.82
31911;BME280;18457;52.432;16.914;2024-01-25T09:27:29;100373.05;;;7.30;93.57
31911;BME280;18457;52.432;16.914;2024-01-25T09:30:00;100374.44;;;7.34;93.94
31911;BME280;18457;52.432;16.914;2024-01-25T09:32:34;100377.52;;;7.32;93.67
31911;BME280;18457;52.432;16.914;2024-01-25T09:35:07;100379.67;;;7.32;93.55
31911;BME280;18457;52.432;16.914;2024-01-25T09:37:40;100388.30;;;7.32;93.66
31911;BME280;18457;52.432;16.914;2024-01-25T09:40:13;100387.55;;;7.34;93.92
31911;BME280;18457;52.432;16.914;2024-01-25T09:42:43;100380.91;;;7.34;93.49
31911;BME280;18457;52.432;16.914;2024-01-25T09:45:18;100390.82;;;7.32;93.55
31911;BME280;18457;52.432;16.914;2024-01-25T09:47:50;100395.65;;;7.34;93.66
31911;BME280;18457;52.432;16.914;2024-01-25T09:50:23;100403.66;;;7.39;93.78
31911;BME280;18457;52.432;16.914;2024-01-25T09:52:58;100405.46;;;7.40;93.68
31911;BME280;18457;52.432;16.914;2024-01-25T09:55:32;100407.63;;;7.40;93.45
31911;BME280;18457;52.432;16.914;2024-01-25T09:58:05;100416.77;;;7.42;93.51
31911;BME280;18457;52.432;16.914;2024-01-25T10:00:38;100422.36;;;7.38;93.73
31911;BME280;18457;52.432;16.914;2024-01-25T10:03:12;100421.67;;;7.36;93.74
31911;BME280;18457;52.432;16.914;2024-01-25T10:05:44;100427.02;;;7.42;93.87
31911;BME280;18457;52.432;16.914;2024-01-25T10:08:16;100429.13;;;7.45;93.86
31911;BME280;18457;52.432;16.914;2024-01-25T10:10:51;100441.86;;;7.47;93.89
31911;BME280;18457;52.432;16.914;2024-01-25T10:13:25;100434.40;;;7.41;94.24
31911;BME280;18457;52.432;16.914;2024-01-25T10:15:58;100439.36;;;7.46;94.38
31911;BME280;18457;52.432;16.914;2024-01-25T10:18:30;100442.63;;;7.44;94.14
31911;BME280;18457;52.432;16.914;2024-01-25T10:21:04;100446.74;;;7.45;94.18
31911;BME280;18457;52.432;16.914;2024-01-25T10:23:37;100448.21;;;7.42;94.38
31911;BME280;18457;52.432;16.914;2024-01-25T10:26:10;100442.59;;;7.47;94.33
31911;BME280;18457;52.432;16.914;2024-01-25T10:28:42;100447.81;;;7.45;94.29
31911;BME280;18457;52.432;16.914;2024-01-25T10:31:15;100455.17;;;7.46;94.10
31911;BME280;18457;52.432;16.914;2024-01-25T10:33:48;100444.21;;;7.46;94.37
31911;BME280;18457;52.432;16.914;2024-01-25T10:36:21;100452.80;;;7.49;94.38
31911;BME280;18457;52.432;16.914;2024-01-25T10:38:55;100453.25;;;7.42;94.22
31911;BME280;18457;52.432;16.914;2024-01-25T10:41:28;100465.14;;;7.38;94.36
31911;BME280;18457;52.432;16.914;2024-01-25T10:44:00;100463.33;;;7.40;94.54
31911;BME280;18457;52.432;16.914;2024-01-25T10:46:33;100459.16;;;7.42;94.56
31911;BME280;18457;52.432;16.914;2024-01-25T10:49:06;100466.39;;;7.39;94.48
31911;BME280;18457;52.432;16.914;2024-01-25T10:51:41;100465.30;;;7.40;94.66
31911;BME280;18457;52.432;16.914;2024-01-25T10:54:15;100471.02;;;7.44;94.26
31911;BME280;18457;52.432;16.914;2024-01-25T10:56:48;100471.39;;;7.42;94.08
31911;BME280;18457;52.432;16.914;2024-01-25T10:59:21;100479.34;;;7.39;94.05
31911;BME280;18457;52.432;16.914;2024-01-25T11:01:56;100479.56;;;7.34;94.34
31911;BME280;18457;52.432;16.914;2024-01-25T11:04:30;100481.89;;;7.35;94.63
31911;BME280;18457;52.432;16.914;2024-01-25T11:07:07;100482.09;;;7.34;94.33
31911;BME280;18457;52.432;16.914;2024-01-25T11:09:40;100482.20;;;7.38;94.02
31911;BME280;18457;52.432;16.914;2024-01-25T11:12:14;100480.59;;;7.38;94.24
31911;BME280;18457;52.432;16.914;2024-01-25T11:14:53;100480.98;;;7.37;93.92
31911;BME280;18457;52.432;16.914;2024-01-25T11:17:26;100479.00;;;7.36;94.19
31911;BME280;18457;52.432;16.914;2024-01-25T11:20:02;100487.05;;;7.40;94.33
31911;BME280;18457;52.432;16.914;2024-01-25T11:22:37;100495.35;;;7.36;94.36
31911;BME280;18457;52.432;16.914;2024-01-25T11:25:18;100496.09;;;7.33;94.37
31911;BME280;18457;52.432;16.914;2024-01-25T11:27:51;100488.54;;;7.33;94.30
31911;BME280;18457;52.432;16.914;2024-01-25T11:30:23;100498.77;;;7.36;94.39
31911;BME280;18457;52.432;16.914;2024-01-25T11:32:56;100498.95;;;7.38;94.18
31911;BME280;18457;52.432;16.914;2024-01-25T11:35:28;100503.95;;;7.39;94.03
31911;BME280;18457;52.432;16.914;2024-01-25T11:38:00;100503.44;;;7.37;94.01
31911;BME280;18457;52.432;16.914;2024-01-25T11:40:33;100510.05;;;7.39;93.95
31911;BME280;18457;52.432;16.914;2024-01-25T11:43:08;100507.52;;;7.41;93.44
31911;BME280;18457;52.432;16.914;2024-01-25T11:45:42;100514.69;;;7.44;93.32
31911;BME280;18457;52.432;16.914;2024-01-25T11:48:15;100510.35;;;7.46;93.45
31911;BME280;18457;52.432;16.914;2024-01-25T11:50:47;100516.77;;;7.50;93.32
31911;BME280;18457;52.432;16.914;2024-01-25T11:53:21;100515.91;;;7.47;93.06
31911;BME280;18457;52.432;16.914;2024-01-25T11:56:00;100514.27;;;7.49;92.75
31911;BME280;18457;52.432;16.914;2024-01-25T11:58:41;100518.59;;;7.49;93.06
31911;BME280;18457;52.432;16.914;2024-01-25T12:01:12;100521.89;;;7.44;93.45
31911;BME280;18457;52.432;16.914;2024-01-25T12:03:45;100529.29;;;7.41;93.58
31911;BME280;18457;52.432;16.914;2024-01-25T12:06:18;100537.51;;;7.44;94.37
31911;BME280;18457;52.432;16.914;2024-01-25T12:08:50;100541.55;;;7.36;95.37
31911;BME280;18457;52.432;16.914;2024-01-25T12:11:25;100543.56;;;7.31;96.41
31911;BME280;18457;52.432;16.914;2024-01-25T12:13:59;100543.06;;;7.26;97.56
31911;BME280;18457;52.432;16.914;2024-01-25T12:16:32;100552.59;;;7.24;98.90
31911;BME280;18457;52.432;16.914;2024-01-25T12:19:08;100542.50;;;7.28;99.80
31911;BME280;18457;52.432;16.914;2024-01-25T12:21:44;100555.11;;;7.25;100.00
31911;BME280;18457;52.432;16.914;2024-01-25T12:24:17;100563.25;;;7.19;100.00
31911;BME280;18457;52.432;16.914;2024-01-25T12:26:51;100564.84;;;7.23;100.00
31911;BME280;18457;52.432;16.914;2024-01-25T12:29:23;100566.67;;;7.18;100.00
31911;BME280;18457;52.432;16.914;2024-01-25T12:31:55;100568.48;;;7.16;100.00
31911;BME280;18457;52.432;16.914;2024-01-25T12:34:27;100570.46;;;7.15;100.00
31911;BME280;18457;52.432;16.914;2024-01-25T12:36:59;100567.58;;;7.18;100.00
31911;BME280;18457;52.432;16.914;2024-01-25T12:39:31;100571.15;;;7.18;100.00
31911;BME280;18457;52.432;16.914;2024-01-25T12:42:04;100576.91;;;7.18;100.00
31911;BME280;18457;52.432;16.914;2024-01-25T12:44:37;100572.77;;;7.20;100.00
31911;BME280;18457;52.432;16.914;2024-01-25T12:47:09;100571.15;;;7.19;100.00
31911;BME280;18457;52.432;16.914;2024-01-25T12:49:42;100577.03;;;7.24;100.00
31911;BME280;18457;52.432;16.914;2024-01-25T12:52:15;100577.23;;;7.21;100.00
31911;BME280;18457;52.432;16.914;2024-01-25T12:54:48;100579.56;;;7.22;99.97
31911;BME280;18457;52.432;16.914;2024-01-25T12:57:21;100580.66;;;7.22;99.88
31911;BME280;18457;52.432;16.914;2024-01-25T12:59:54;100580.21;;;7.30;99.57
31911;BME280;18457;52.432;16.914;2024-01-25T13:02:28;100590.81;;;7.32;98.70
31911;BME280;18457;52.432;16.914;2024-01-25T13:05:00;100586.45;;;7.37;97.68
31911;BME280;18457;52.432;16.914;2024-01-25T13:07:33;100591.45;;;7.42;96.66
31911;BME280;18457;52.432;16.914;2024-01-25T13:10:08;100592.32;;;7.45;96.06
31911;BME280;18457;52.432;16.914;2024-01-25T13:12:41;100589.54;;;7.54;95.64
31911;BME280;18457;52.432;16.914;2024-01-25T13:15:13;100592.77;;;7.57;95.29